Flight Track Log - Related Links

Times and Time Zones

All times are in EDT time to prevent confusion due to time zone crossing. See the N84XP flight status page for this flight to view local times or setup timezone preferences in your user account.

Time Position Orientation Groundspeed Altitude Reporting Facility
EDT Latitude Longitude Course Direction KTS MPH feet Rate Location/Type
Sat 11:48:25 AM 44.9058 -85.2117 180° South 173 199 4,000  Level Minneapolis Center
Sat 11:49:27 AM 44.8583 -85.2131 181° South 171 197 5,800 1,742 Climbing Minneapolis Center
Sat 11:50:29 AM 44.8072 -85.2125 180° South 175 201 7,600 1,742 Climbing Minneapolis Center
Sat 11:51:31 AM 44.7556 -85.2103 178° South 181 208 9,400 1,790 Climbing Minneapolis Center
Sat 11:52:33 AM 44.7047 -85.2072 178° South 182 209 11,300 2,032 Climbing Minneapolis Center
Sat 11:53:00 AM 44.6117 -85.1833 180° South  Level FlightAware Approximate
Sat 11:53:35 AM 44.6414 -85.2033 177° South 187 215 13,600  Level Minneapolis Center
Sat 11:54:49 AM 44.5900 -85.2033 180° South 186 214 15,500 1,721 Climbing Minneapolis Center
Sat 11:55:51 AM 44.5281 -85.2056 181° South 185 213 17,500 1,790 Climbing Minneapolis Center
Sat 11:56:53 AM 44.4753 -85.2067 181° South 188 216 19,200 1,548 Climbing Minneapolis Center
Sat 11:57:55 AM 44.4233 -85.2067 180° South 187 215 20,700 1,403 Climbing Minneapolis Center
Sat 11:58:57 AM 44.3694 -85.2056 179° South 192 221 22,100 1,548 Climbing Minneapolis Center
Sat 11:59:59 AM 44.3053 -85.2056 180° South 192 221 23,900 1,500 Climbing Minneapolis Center
Sat 12:01:01 PM 44.2525 -85.2053 180° South 189 217 25,200 1,016 Climbing Minneapolis Center
Sat 12:02:03 PM 44.1986 -85.2050 180° South 192 221 26,000 435 Climbing Minneapolis Center
Sat 12:03:05 PM 44.1322 -85.2069 181° South 220 253 26,100 48 Climbing Minneapolis Center
Sat 12:04:07 PM 44.0547 -85.2081 181° South 259 298 26,100  Level Minneapolis Center
Sat 12:05:21 PM 43.9739 -85.2086 180° South 279 321 26,100  Level Minneapolis Center
Sat 12:06:24 PM 43.8781 -85.2078 180° South 285 328 26,100 -48 Level Minneapolis Center
Sat 12:07:26 PM 43.7831 -85.2047 179° South 284 327 26,000 -48 Descending Minneapolis Center
Sat 12:08:28 PM 43.7056 -85.2061 181° South 281 323 26,000  Level Minneapolis Center
Sat 12:09:30 PM 43.6289 -85.2056 180° South 277 319 26,000  Level Minneapolis Center
Sat 12:10:04 PM 43.5828 -85.2047 179° South 277 319 26,000  Level Chicago Center
Sat 12:11:06 PM 43.5061 -85.2044 180° South 275 316 26,000  Level Chicago Center
Sat 12:12:08 PM 43.4289 -85.2031 179° South 277 319 26,000  Level Chicago Center
Sat 12:13:10 PM 43.3511 -85.2025 180° South 278 320 26,000  Level Chicago Center
Sat 12:14:12 PM 43.2733 -85.1997 179° South 278 320 26,000  Level Chicago Center
Sat 12:15:14 PM 43.1814 -85.2003 180° South 276 318 26,000  Level Chicago Center
Sat 12:16:15 PM 43.1056 -85.1997 180° South 272 313 26,000  Level Chicago Center
Sat 12:17:17 PM 43.0281 -85.1992 180° South 275 316 26,000  Level Chicago Center
Sat 12:18:20 PM 42.9533 -85.1981 179° South 270 311 26,000  Level Chicago Center
Sat 12:19:21 PM 42.8764 -85.1989 180° South 274 315 26,000  Level Chicago Center
Sat 12:20:23 PM 42.7997 -85.1992 180° South 275 316 26,000  Level Chicago Center
Sat 12:21:25 PM 42.7233 -85.1978 179° South 274 315 26,000  Level Chicago Center
Sat 12:22:27 PM 42.6319 -85.1967 179° South 273 314 26,000  Level Chicago Center
Sat 12:23:29 PM 42.5553 -85.1961 180° South 274 315 26,000  Level Chicago Center
Sat 12:24:31 PM 42.4786 -85.1961 180° South 276 318 26,000  Level Chicago Center
Sat 12:25:33 PM 42.4008 -85.1953 180° South 278 320 26,000  Level Chicago Center
Sat 12:26:35 PM 42.3236 -85.1947 180° South 277 319 26,000  Level Chicago Center
Sat 12:27:37 PM 42.2458 -85.1947 180° South 279 321 26,000  Level Chicago Center
Sat 12:28:39 PM 42.1672 -85.1944 180° South 281 323 26,000  Level Chicago Center
Sat 12:29:41 PM 42.0739 -85.1928 179° South 280 322 26,000  Level Chicago Center
Sat 12:30:43 PM 41.9958 -85.1914 179° South 280 322 26,000  Level Chicago Center
Sat 12:31:45 PM 41.9225 -85.1947 182° South 281 323 26,000  Level Chicago Center
Sat 12:32:47 PM 41.8447 -85.1936 179° South 278 320 26,000  Level Chicago Center
Sat 12:33:48 PM 41.7503 -85.1928 180° South 280 322 26,000  Level Chicago Center
Sat 12:34:50 PM 41.6708 -85.1922 180° South 281 323 26,000  Level Chicago Center
Sat 12:35:52 PM 41.5914 -85.1911 179° South 282 325 26,000  Level Chicago Center
Sat 12:36:54 PM 41.5119 -85.1908 180° South 282 325 26,000  Level Chicago Center
Sat 12:37:56 PM 41.4331 -85.1903 180° South 283 326 26,000  Level Chicago Center
Sat 12:38:58 PM 41.3542 -85.1906 180° South 282 325 26,000  Level Chicago Center
Sat 12:40:00 PM 41.2753 -85.1897 180° South 283 326 26,000  Level Chicago Center
Sat 12:41:02 PM 41.1967 -85.1892 180° South 282 325 26,000  Level Chicago Center
Sat 12:42:04 PM 41.1017 -85.1872 179° South 284 327 26,000  Level Chicago Center
Sat 12:43:06 PM 41.0231 -85.1881 180° South 283 326 26,000  Level Chicago Center
Sat 12:44:08 PM 40.9447 -85.1883 180° South 283 326 26,000  Level Chicago Center
Sat 12:45:10 PM 40.8658 -85.1856 178° South 283 326 26,000  Level Chicago Center
Sat 12:46:12 PM 40.7864 -85.1872 181° South 285 328 26,000  Level Chicago Center
Sat 12:47:14 PM 40.7064 -85.1858 179° South 286 329 26,000  Level Chicago Center
Sat 12:48:16 PM 40.6214 -85.1872 181° South 287 330 26,000  Level Chicago Center
Sat 12:49:18 PM 40.5414 -85.1856 179° South 287 330 26,000  Level Chicago Center
Sat 12:50:19 PM 40.4617 -85.1856 180° South 287 330 26,000  Level Chicago Center
Sat 12:51:21 PM 40.3672 -85.1867 181° South 286 329 26,000  Level Chicago Center
Sat 12:52:23 PM 40.2881 -85.1869 180° South 285 328 26,000  Level Chicago Center
Sat 12:53:25 PM 40.2094 -85.1858 179° South 283 326 26,000  Level Chicago Center
Sat 12:54:27 PM 40.1317 -85.1847 179° South 281 323 26,000  Level Chicago Center
Sat 12:55:27 PM 40.0508 -85.1847 180° South 283 326 26,000  Level Indianapolis Center
Sat 12:56:28 PM 39.9725 -85.1847 180° South 282 325 26,000  Level Indianapolis Center
Sat 12:57:29 PM 39.8939 -85.1844 180° South 282 325 26,000  Level Indianapolis Center
Sat 12:58:31 PM 39.8142 -85.1819 179° South 285 328 26,000  Level Indianapolis Center
Sat 12:59:32 PM 39.7369 -85.1825 180° South 280 322 26,000  Level Indianapolis Center
Sat 01:00:33 PM 39.6419 -85.1825 180° South 285 328 26,000  Level Indianapolis Center
Sat 01:01:35 PM 39.5639 -85.1819 180° South 282 325 26,000  Level Indianapolis Center
Sat 01:02:36 PM 39.4842 -85.1814 180° South 284 327 26,000  Level Indianapolis Center
Sat 01:03:37 PM 39.4064 -85.1808 180° South 281 323 26,000  Level Indianapolis Center
Sat 01:04:39 PM 39.3275 -85.1811 180° South 284 327 26,000  Level Indianapolis Center
Sat 01:05:40 PM 39.2497 -85.1808 180° South 281 323 26,000 246 Level Indianapolis Center
Sat 01:06:41 PM 39.1711 -85.1811 180° South 282 325 26,500 780 Climbing Indianapolis Center
Sat 01:07:43 PM 39.1011 -85.1800 179° South 259 298 27,600 732 Climbing Indianapolis Center
Sat 01:08:44 PM 39.0358 -85.1792 179° South 240 276 28,000 246 Climbing Indianapolis Center
Sat 01:09:45 PM 38.9614 -85.1794 180° South 260 299 28,100 49 Climbing Indianapolis Center
Sat 01:10:46 PM 38.8700 -85.1797 180° South 273 314 28,100 -49 Level Indianapolis Center
Sat 01:11:48 PM 38.7917 -85.1789 180° South 278 320 28,000 -49 Descending Indianapolis Center
Sat 01:12:49 PM 38.7136 -85.1786 180° South 282 325 28,000  Level Indianapolis Center
Sat 01:13:50 PM 38.6319 -85.1786 180° South 284 327 28,000  Level Indianapolis Center
Sat 01:14:52 PM 38.5539 -85.1781 180° South 282 325 28,000  Level Indianapolis Center
Sat 01:15:53 PM 38.4747 -85.1767 179° South 283 326 28,000  Level Indianapolis Center
Sat 01:16:54 PM 38.3958 -85.1767 180° South 283 326 28,000  Level Indianapolis Center
Sat 01:17:56 PM 38.3153 -85.1767 180° South 286 329 28,000  Level Indianapolis Center
Sat 01:18:57 PM 38.2378 -85.1753 179° South 282 325 28,000  Level Indianapolis Center
Sat 01:19:58 PM 38.1442 -85.1758 180° South 286 329 28,000  Level Indianapolis Center
Sat 01:21:00 PM 38.0639 -85.1756 180° South 287 330 28,000  Level Indianapolis Center
Sat 01:22:01 PM 37.9861 -85.1747 180° South 284 327 28,000  Level Indianapolis Center
Sat 01:23:03 PM 37.9061 -85.1739 180° South 285 328 28,000  Level Indianapolis Center
Sat 01:24:04 PM 37.8258 -85.1750 181° South 287 330 28,000  Level Indianapolis Center
Sat 01:25:05 PM 37.7475 -85.1736 179° South 282 325 28,000  Level Indianapolis Center
Sat 01:26:07 PM 37.6675 -85.1714 179° South 286 329 28,000  Level Indianapolis Center
Sat 01:27:08 PM 37.5886 -85.1719 180° South 283 326 28,000  Level Indianapolis Center
Sat 01:28:09 PM 37.4956 -85.1725 180° South 285 328 28,000  Level Indianapolis Center
Sat 01:29:11 PM 37.4175 -85.1706 179° South 282 325 28,000  Level Indianapolis Center
Sat 01:30:12 PM 37.3381 -85.1703 180° South 283 326 28,000  Level Indianapolis Center
Sat 01:31:14 PM 37.2583 -85.1661 178° South 287 330 28,000  Level Indianapolis Center
Sat 01:32:15 PM 37.1797 -85.1650 179° South 283 326 28,000  Level Indianapolis Center
Sat 01:33:16 PM 37.0994 -85.1658 180° South 286 329 28,000  Level Indianapolis Center
Sat 01:34:18 PM 37.0119 -85.1667 180° South 283 326 28,000  Level Indianapolis Center
Sat 01:35:19 PM 36.9333 -85.1636 178° South 284 327 28,000  Level Indianapolis Center
Sat 01:36:20 PM 36.8536 -85.1614 179° South 284 327 28,000  Level Indianapolis Center
Sat 01:37:22 PM 36.7744 -85.1606 180° South 285 328 28,000  Level Indianapolis Center
Sat 01:38:23 PM 36.6961 -85.1606 180° South 283 326 28,000  Level Indianapolis Center
Sat 01:39:24 PM 36.6158 -85.1614 180° South 285 328 28,000  Level Indianapolis Center
Sat 01:40:26 PM 36.5372 -85.1594 179° South 284 327 28,000  Level Indianapolis Center
Sat 01:41:27 PM 36.4578 -85.1589 180° South 286 329 28,000  Level Indianapolis Center
Sat 01:42:28 PM 36.3639 -85.1575 179° South 282 325 28,000  Level Indianapolis Center
Sat 01:43:30 PM 36.2853 -85.1569 180° South 282 325 28,000  Level Indianapolis Center
Sat 01:44:31 PM 36.2078 -85.1550 179° South 281 323 28,000  Level Indianapolis Center
Sat 01:45:32 PM 36.1303 -85.1556 180° South 279 321 28,000 -98 Level Indianapolis Center
Sat 01:46:34 PM 36.0514 -85.1533 179° South 284 327 27,800 -780 Descending Indianapolis Center
Sat 01:47:35 PM 35.9661 -85.1522 179° South 303 349 26,400 -1,328 Descending Indianapolis Center
Sat 01:48:36 PM 35.8781 -85.1467 177° South 320 368 25,100 -1,366 Descending Indianapolis Center
Sat 01:49:38 PM 35.7908 -85.1364 175° South 315 362 23,600 -1,512 Descending Indianapolis Center
Sat 01:50:39 PM 35.6894 -85.1239 174° South 313 360 22,000 -1,465 Descending Indianapolis Center
Sat 01:51:45 PM 35.6031 -85.1167 176° South 309 356 20,500 -952 Descending Atlanta Center
Sat 01:52:45 PM 35.5217 -85.1106 177° South 309 356 20,000 -250 Descending Atlanta Center
Sat 01:53:45 PM 35.4467 -85.1044 176° South 296 341 20,000  Level Atlanta Center
Sat 01:54:45 PM 35.3736 -85.1086 183° South 274 315 20,000  Level Atlanta Center
Sat 01:55:45 PM 35.3047 -85.1128 183° South 264 304 20,000 -500 Level Atlanta Center
Sat 01:56:45 PM 35.2336 -85.1169 183° South 258 297 19,000 -1,600 Descending Atlanta Center
Sat 01:57:45 PM 35.1503 -85.1208 182° South 273 314 16,800 -2,200 Descending Atlanta Center
Sat 01:58:45 PM 35.0689 -85.1222 181° South 285 328 14,600 -2,000 Descending Atlanta Center
Sat 01:59:45 PM 34.9917 -85.1239 181° South 290 334 12,800 -1,800 Descending Atlanta Center
Sat 02:00:45 PM 34.9144 -85.1253 181° South 290 334 11,000 -2,100 Descending Atlanta Center
Sat 02:01:45 PM 34.8392 -85.1294 183° South 285 328 8,600 -1,900 Descending Atlanta Center
Sat 02:02:45 PM 34.7683 -85.1286 179° South 270 311 7,200 -1,300 Descending Atlanta Center
Sat 02:03:45 PM 34.6994 -85.1328 183° South 264 304 6,000 -1,300 Descending Atlanta Center
Sat 02:04:45 PM 34.6283 -85.1319 179° South 242 278 4,600 -700 Descending Atlanta Center
Sat 02:05:45 PM 34.5658 -85.1311 179° South 242 278 4,600 -300 Level Atlanta Center
Sat 02:06:45 PM 34.4992 -85.1303 179° South 242 278 4,000 -300 Descending Atlanta Center
Sat 02:07:45 PM 34.4303 -85.1292 179° South 242 278 4,000 -100 Level Atlanta Center
Sat 02:08:45 PM 34.4111 -85.1517 224° Southwest 269 310 3,800 -200 Descending Atlanta Center

Login

Don't have an account? Register now (free) for customized features, flight alerts, and more!